sensor_id;sensor_type;location;lat;lon;timestamp;pressure;altitude;pressure_sealevel;temperature;humidity
23303;BME280;11820;48.738;9.092;2023-02-02T00:01:18;96899.53;;;4.98;nan
23303;BME280;11820;48.738;9.092;2023-02-02T00:03:43;96890.88;;;4.99;nan
23303;BME280;11820;48.738;9.092;2023-02-02T00:06:09;96891.41;;;5.03;nan
23303;BME280;11820;48.738;9.092;2023-02-02T00:08:34;96875.75;;;5.06;nan
23303;BME280;11820;48.738;9.092;2023-02-02T00:11:02;96870.09;;;5.02;nan
23303;BME280;11820;48.738;9.092;2023-02-02T00:13:27;96873.31;;;5.04;nan
23303;BME280;11820;48.738;9.092;2023-02-02T00:15:53;96877.50;;;5.05;nan
23303;BME280;11820;48.738;9.092;2023-02-02T00:18:18;96882.13;;;5.02;nan
23303;BME280;11820;48.738;9.092;2023-02-02T00:20:43;96870.91;;;5.03;nan
23303;BME280;11820;48.738;9.092;2023-02-02T00:23:11;96871.56;;;5.05;nan
23303;BME280;11820;48.738;9.092;2023-02-02T00:25:37;96879.25;;;5.05;nan
23303;BME280;11820;48.738;9.092;2023-02-02T00:28:02;96889.28;;;5.16;nan
23303;BME280;11820;48.738;9.092;2023-02-02T00:30:27;96891.06;;;5.15;nan
23303;BME280;11820;48.738;9.092;2023-02-02T00:32:53;96891.56;;;5.19;nan
23303;BME280;11820;48.738;9.092;2023-02-02T00:35:19;96893.75;;;5.14;nan
23303;BME280;11820;48.738;9.092;2023-02-02T00:37:44;96888.34;;;5.17;nan
23303;BME280;11820;48.738;9.092;2023-02-02T00:40:10;96888.34;;;5.17;nan
23303;BME280;11820;48.738;9.092;2023-02-02T00:42:35;96886.16;;;5.22;nan
23303;BME280;11820;48.738;9.092;2023-02-02T00:45:02;96883.56;;;5.22;nan
23303;BME280;11820;48.738;9.092;2023-02-02T00:47:45;96883.44;;;5.23;nan
23303;BME280;11820;48.738;9.092;2023-02-02T00:50:16;96885.06;;;5.24;nan
23303;BME280;11820;48.738;9.092;2023-02-02T00:52:43;96888.81;;;5.30;nan
23303;BME280;11820;48.738;9.092;2023-02-02T00:55:10;96879.81;;;5.26;nan
23303;BME280;11820;48.738;9.092;2023-02-02T00:57:36;96875.31;;;5.28;nan
23303;BME280;11820;48.738;9.092;2023-02-02T01:00:03;96880.47;;;5.28;nan
23303;BME280;11820;48.738;9.092;2023-02-02T01:02:29;96883.31;;;5.25;nan
23303;BME280;11820;48.738;9.092;2023-02-02T01:04:54;96869.69;;;5.24;nan
23303;BME280;11820;48.738;9.092;2023-02-02T01:07:19;96865.06;;;5.28;nan
23303;BME280;11820;48.738;9.092;2023-02-02T01:09:45;96867.94;;;5.25;nan
23303;BME280;11820;48.738;9.092;2023-02-02T01:12:10;96875.63;;;5.25;nan
23303;BME280;11820;48.738;9.092;2023-02-02T01:14:35;96879.94;;;5.24;nan
23303;BME280;11820;48.738;9.092;2023-02-02T01:17:00;96878.84;;;5.27;nan
23303;BME280;11820;48.738;9.092;2023-02-02T01:19:26;96877.59;;;5.31;nan
23303;BME280;11820;48.738;9.092;2023-02-02T01:21:51;96888.44;;;5.25;nan
23303;BME280;11820;48.738;9.092;2023-02-02T01:24:16;96893.47;;;5.34;nan
23303;BME280;11820;48.738;9.092;2023-02-02T01:26:42;96885.88;;;5.25;nan
23303;BME280;11820;48.738;9.092;2023-02-02T01:29:07;96896.91;;;5.25;nan
23303;BME280;11820;48.738;9.092;2023-02-02T01:31:32;96892.63;;;5.26;nan
23303;BME280;11820;48.738;9.092;2023-02-02T01:33:58;96893.69;;;5.23;nan
23303;BME280;11820;48.738;9.092;2023-02-02T01:36:23;96891.56;;;5.19;nan
23303;BME280;11820;48.738;9.092;2023-02-02T01:38:49;96895.59;;;5.21;nan
23303;BME280;11820;48.738;9.092;2023-02-02T01:41:22;96880.72;;;5.07;nan
23303;BME280;11820;48.738;9.092;2023-02-02T01:43:51;96883.28;;;5.07;nan
23303;BME280;11820;48.738;9.092;2023-02-02T01:51:46;96892.97;;;5.31;nan
23303;BME280;11820;48.738;9.092;2023-02-02T01:54:17;96890.59;;;5.20;nan
23303;BME280;11820;48.738;9.092;2023-02-02T01:56:49;96891.19;;;5.14;nan
23303;BME280;11820;48.738;9.092;2023-02-02T01:59:17;96886.44;;;5.19;nan
23303;BME280;11820;48.738;9.092;2023-02-02T02:01:45;96883.31;;;5.25;nan
23303;BME280;11820;48.738;9.092;2023-02-02T02:04:11;96879.13;;;5.24;nan
23303;BME280;11820;48.738;9.092;2023-02-02T02:06:36;96882.44;;;5.16;nan
23303;BME280;11820;48.738;9.092;2023-02-02T02:09:03;96881.59;;;5.16;nan
23303;BME280;11820;48.738;9.092;2023-02-02T02:11:30;96875.22;;;5.20;nan
23303;BME280;11820;48.738;9.092;2023-02-02T02:13:59;96885.47;;;5.20;nan
23303;BME280;11820;48.738;9.092;2023-02-02T02:17:08;96873.91;;;5.33;nan
23303;BME280;11820;48.738;9.092;2023-02-02T02:19:58;96877.97;;;5.36;nan
23303;BME280;11820;48.738;9.092;2023-02-02T02:39:21;96888.16;;;5.28;nan
23303;BME280;11820;48.738;9.092;2023-02-02T02:41:55;96877.91;;;5.28;nan
23303;BME280;11820;48.738;9.092;2023-02-02T02:44:22;96886.91;;;5.32;nan
23303;BME280;11820;48.738;9.092;2023-02-02T02:46:48;96875.16;;;5.29;nan
23303;BME280;11820;48.738;9.092;2023-02-02T02:49:15;96879.03;;;5.33;nan
23303;BME280;11820;48.738;9.092;2023-02-02T02:51:49;96879.22;;;5.32;nan
23303;BME280;11820;48.738;9.092;2023-02-02T02:54:25;96880.94;;;5.31;nan
23303;BME280;11820;48.738;9.092;2023-02-02T02:57:02;96891.72;;;5.17;nan
23303;BME280;11820;48.738;9.092;2023-02-02T02:59:45;96888.28;;;5.26;nan
23303;BME280;11820;48.738;9.092;2023-02-02T03:05:19;96877.28;;;5.16;nan
23303;BME280;11820;48.738;9.092;2023-02-02T03:07:56;96876.19;;;5.19;nan
23303;BME280;11820;48.738;9.092;2023-02-02T03:10:28;96884.53;;;5.21;nan
23303;BME280;11820;48.738;9.092;2023-02-02T03:12:55;96880.94;;;5.14;nan
23303;BME280;11820;48.738;9.092;2023-02-02T03:15:21;96878.44;;;5.22;nan
23303;BME280;11820;48.738;9.092;2023-02-02T03:17:47;96878.31;;;5.23;nan
23303;BME280;11820;48.738;9.092;2023-02-02T03:20:15;96870.75;;;5.22;nan
23303;BME280;11820;48.738;9.092;2023-02-02T03:22:40;96888.03;;;5.20;nan
23303;BME280;11820;48.738;9.092;2023-02-02T03:25:06;96873.50;;;5.20;nan
23303;BME280;11820;48.738;9.092;2023-02-02T03:27:36;96880.00;;;5.15;nan
23303;BME280;11820;48.738;9.092;2023-02-02T03:30:03;96875.69;;;5.15;nan
23303;BME280;11820;48.738;9.092;2023-02-02T03:32:28;96872.59;;;5.12;nan
23303;BME280;11820;48.738;9.092;2023-02-02T03:34:53;96881.19;;;5.20;nan
23303;BME280;11820;48.738;9.092;2023-02-02T03:37:19;96872.66;;;5.20;nan
23303;BME280;11820;48.738;9.092;2023-02-02T03:39:44;96881.31;;;5.19;nan
23303;BME280;11820;48.738;9.092;2023-02-02T03:42:09;96867.84;;;5.17;nan
23303;BME280;11820;48.738;9.092;2023-02-02T03:44:35;96874.28;;;5.21;nan
23303;BME280;11820;48.738;9.092;2023-02-02T03:47:00;96869.31;;;5.19;nan
23303;BME280;11820;48.738;9.092;2023-02-02T03:49:25;96867.53;;;5.20;nan
23303;BME280;11820;48.738;9.092;2023-02-02T03:51:50;96876.47;;;5.16;nan
23303;BME280;11820;48.738;9.092;2023-02-02T03:54:16;96878.38;;;5.14;nan
23303;BME280;11820;48.738;9.092;2023-02-02T03:56:41;96873.25;;;5.14;nan
23303;BME280;11820;48.738;9.092;2023-02-02T03:59:06;96874.06;;;5.14;nan
23303;BME280;11820;48.738;9.092;2023-02-02T04:01:32;96874.56;;;5.18;nan
23303;BME280;11820;48.738;9.092;2023-02-02T04:03:58;96874.72;;;5.16;nan
23303;BME280;11820;48.738;9.092;2023-02-02T04:06:23;96889.00;;;5.19;nan
23303;BME280;11820;48.738;9.092;2023-02-02T04:08:49;96877.00;;;5.19;nan
23303;BME280;11820;48.738;9.092;2023-02-02T04:11:15;96887.38;;;5.18;nan
23303;BME280;11820;48.738;9.092;2023-02-02T04:13:40;96891.25;;;5.22;nan
23303;BME280;11820;48.738;9.092;2023-02-02T04:16:07;96887.91;;;5.21;nan
23303;BME280;11820;48.738;9.092;2023-02-02T04:18:33;96902.22;;;5.24;nan
23303;BME280;11820;48.738;9.092;2023-02-02T04:21:00;96896.63;;;5.28;nan
23303;BME280;11820;48.738;9.092;2023-02-02T04:23:26;96904.78;;;5.24;nan
23303;BME280;11820;48.738;9.092;2023-02-02T04:25:52;96897.88;;;5.24;nan
23303;BME280;11820;48.738;9.092;2023-02-02T04:28:19;96906.38;;;5.25;nan
23303;BME280;11820;48.738;9.092;2023-02-02T04:30:44;96908.94;;;5.25;nan
23303;BME280;11820;48.738;9.092;2023-02-02T04:33:09;96905.13;;;5.29;nan
23303;BME280;11820;48.738;9.092;2023-02-02T04:35:35;96918.50;;;5.23;nan
23303;BME280;11820;48.738;9.092;2023-02-02T04:38:00;96923.09;;;5.29;nan
23303;BME280;11820;48.738;9.092;2023-02-02T04:40:26;96931.72;;;5.28;nan
23303;BME280;11820;48.738;9.092;2023-02-02T04:42:51;96918.25;;;5.26;nan
23303;BME280;11820;48.738;9.092;2023-02-02T04:45:16;96937.66;;;5.28;nan
23303;BME280;11820;48.738;9.092;2023-02-02T04:47:41;96916.06;;;5.31;nan
23303;BME280;11820;48.738;9.092;2023-02-02T04:50:07;96916.47;;;5.26;nan
23303;BME280;11820;48.738;9.092;2023-02-02T04:52:33;96920.00;;;5.25;nan
23303;BME280;11820;48.738;9.092;2023-02-02T04:54:59;96917.66;;;5.32;nan
23303;BME280;11820;48.738;9.092;2023-02-02T04:57:24;96940.06;;;5.30;nan
23303;BME280;11820;48.738;9.092;2023-02-02T04:59:50;96938.47;;;5.29;nan
23303;BME280;11820;48.738;9.092;2023-02-02T05:02:15;96934.06;;;5.21;nan
23303;BME280;11820;48.738;9.092;2023-02-02T05:04:40;96932.50;;;5.28;nan
23303;BME280;11820;48.738;9.092;2023-02-02T05:07:06;96934.28;;;5.28;nan
23303;BME280;11820;48.738;9.092;2023-02-02T05:09:31;96931.84;;;5.26;nan
23303;BME280;11820;48.738;9.092;2023-02-02T05:11:56;96938.91;;;5.42;nan
23303;BME280;11820;48.738;9.092;2023-02-02T05:14:22;96932.16;;;5.41;nan
23303;BME280;11820;48.738;9.092;2023-02-02T05:16:47;96944.19;;;5.40;nan
23303;BME280;11820;48.738;9.092;2023-02-02T05:19:14;96943.38;;;5.40;nan
23303;BME280;11820;48.738;9.092;2023-02-02T05:21:44;96935.03;;;5.38;nan
23303;BME280;11820;48.738;9.092;2023-02-02T05:24:10;96942.94;;;5.44;nan
23303;BME280;11820;48.738;9.092;2023-02-02T05:26:36;96948.88;;;5.45;nan
23303;BME280;11820;48.738;9.092;2023-02-02T05:29:01;96942.13;;;5.44;nan
23303;BME280;11820;48.738;9.092;2023-02-02T05:31:27;96950.06;;;5.50;nan
23303;BME280;11820;48.738;9.092;2023-02-02T05:33:53;96950.72;;;5.52;nan
23303;BME280;11820;48.738;9.092;2023-02-02T05:36:18;96964.91;;;5.47;nan
23303;BME280;11820;48.738;9.092;2023-02-02T05:38:43;96969.09;;;5.48;nan
23303;BME280;11820;48.738;9.092;2023-02-02T05:41:09;96968.81;;;5.51;nan
23303;BME280;11820;48.738;9.092;2023-02-02T05:43:34;96966.91;;;5.53;nan
23303;BME280;11820;48.738;9.092;2023-02-02T05:46:00;96973.00;;;5.52;nan
23303;BME280;11820;48.738;9.092;2023-02-02T05:48:25;96960.75;;;5.46;nan
23303;BME280;11820;48.738;9.092;2023-02-02T05:52:08;96965.06;;;5.45;nan
23303;BME280;11820;48.738;9.092;2023-02-02T05:54:15;96965.81;;;5.55;nan
23303;BME280;11820;48.738;9.092;2023-02-02T05:56:48;96965.59;;;5.49;nan
23303;BME280;11820;48.738;9.092;2023-02-02T05:59:14;96974.38;;;5.46;nan
23303;BME280;11820;48.738;9.092;2023-02-02T06:01:41;96962.63;;;5.44;nan
23303;BME280;11820;48.738;9.092;2023-02-02T06:04:07;96962.16;;;5.40;nan
23303;BME280;11820;48.738;9.092;2023-02-02T06:06:32;96971.94;;;5.45;nan
23303;BME280;11820;48.738;9.092;2023-02-02T06:09:00;96968.06;;;5.41;nan
23303;BME280;11820;48.738;9.092;2023-02-02T06:11:25;96956.44;;;5.46;nan
23303;BME280;11820;48.738;9.092;2023-02-02T06:13:50;96972.91;;;5.44;nan
23303;BME280;11820;48.738;9.092;2023-02-02T06:16:16;96948.22;;;5.43;nan
23303;BME280;11820;48.738;9.092;2023-02-02T06:18:41;96959.78;;;5.47;nan
23303;BME280;11820;48.738;9.092;2023-02-02T06:21:06;96960.75;;;5.46;nan
23303;BME280;11820;48.738;9.092;2023-02-02T06:23:33;96971.81;;;5.46;nan
23303;BME280;11820;48.738;9.092;2023-02-02T06:25:58;96965.88;;;5.46;nan
23303;BME280;11820;48.738;9.092;2023-02-02T06:28:24;96974.22;;;5.48;nan
23303;BME280;11820;48.738;9.092;2023-02-02T06:30:50;96976.53;;;5.51;nan
23303;BME280;11820;48.738;9.092;2023-02-02T06:33:15;96977.47;;;5.50;nan
23303;BME280;11820;48.738;9.092;2023-02-02T06:35:40;96990.44;;;5.48;nan
23303;BME280;11820;48.738;9.092;2023-02-02T06:38:06;96992.03;;;5.49;nan
23303;BME280;11820;48.738;9.092;2023-02-02T06:40:31;96975.28;;;5.55;nan
23303;BME280;11820;48.738;9.092;2023-02-02T06:43:01;96978.13;;;5.52;nan
23303;BME280;11820;48.738;9.092;2023-02-02T06:45:28;96977.53;;;5.58;nan
23303;BME280;11820;48.738;9.092;2023-02-02T06:47:57;96973.66;;;5.54;nan
23303;BME280;11820;48.738;9.092;2023-02-02T06:50:24;96983.63;;;5.57;nan
23303;BME280;11820;48.738;9.092;2023-02-02T06:52:51;96984.41;;;5.57;nan
23303;BME280;11820;48.738;9.092;2023-02-02T06:55:17;96981.72;;;5.59;nan
23303;BME280;11820;48.738;9.092;2023-02-02T06:57:42;96975.28;;;5.55;nan
23303;BME280;11820;48.738;9.092;2023-02-02T07:00:08;96990.38;;;5.58;nan
23303;BME280;11820;48.738;9.092;2023-02-02T07:02:34;97003.63;;;5.53;nan
23303;BME280;11820;48.738;9.092;2023-02-02T07:05:00;96998.00;;;5.50;nan
23303;BME280;11820;48.738;9.092;2023-02-02T07:07:26;96997.28;;;5.48;nan
23303;BME280;11820;48.738;9.092;2023-02-02T07:09:51;96993.41;;;5.44;nan
23303;BME280;11820;48.738;9.092;2023-02-02T07:12:16;96998.53;;;5.44;nan
23303;BME280;11820;48.738;9.092;2023-02-02T07:14:43;96989.59;;;5.48;nan
23303;BME280;11820;48.738;9.092;2023-02-02T07:17:09;96990.44;;;5.48;nan
23303;BME280;11820;48.738;9.092;2023-02-02T07:19:34;96989.06;;;5.54;nan
23303;BME280;11820;48.738;9.092;2023-02-02T07:21:59;96987.44;;;5.53;nan
23303;BME280;11820;48.738;9.092;2023-02-02T07:24:25;96991.78;;;5.43;nan
23303;BME280;11820;48.738;9.092;2023-02-02T07:26:51;97008.78;;;5.44;nan
23303;BME280;11820;48.738;9.092;2023-02-02T07:29:17;96994.88;;;5.46;nan
23303;BME280;11820;48.738;9.092;2023-02-02T07:31:42;96998.69;;;5.42;nan
23303;BME280;11820;48.738;9.092;2023-02-02T07:34:07;96990.13;;;5.51;nan
23303;BME280;11820;48.738;9.092;2023-02-02T07:36:32;96994.72;;;5.48;nan
23303;BME280;11820;48.738;9.092;2023-02-02T07:38:58;97002.97;;;5.51;nan
23303;BME280;11820;48.738;9.092;2023-02-02T07:41:26;97002.41;;;5.48;nan
23303;BME280;11820;48.738;9.092;2023-02-02T07:43:52;97001.22;;;5.52;nan
23303;BME280;11820;48.738;9.092;2023-02-02T07:46:17;97009.69;;;5.52;nan
23303;BME280;11820;48.738;9.092;2023-02-02T07:48:43;97008.75;;;5.53;nan
23303;BME280;11820;48.738;9.092;2023-02-02T07:51:12;97004.38;;;5.63;nan
23303;BME280;11820;48.738;9.092;2023-02-02T07:53:38;97007.59;;;5.65;nan
23303;BME280;11820;48.738;9.092;2023-02-02T07:56:13;97008.41;;;5.66;nan
23303;BME280;11820;48.738;9.092;2023-02-02T07:58:38;97002.00;;;5.79;nan
23303;BME280;11820;48.738;9.092;2023-02-02T08:01:06;96998.63;;;5.96;nan
23303;BME280;11820;48.738;9.092;2023-02-02T08:03:32;96991.66;;;6.06;nan
23303;BME280;11820;48.738;9.092;2023-02-02T08:05:58;96983.22;;;6.14;nan
23303;BME280;11820;48.738;9.092;2023-02-02T08:08:24;96983.53;;;5.93;nan
23303;BME280;11820;48.738;9.092;2023-02-02T08:10:51;96976.97;;;5.99;nan
23303;BME280;11820;48.738;9.092;2023-02-02T08:13:18;96976.25;;;6.06;nan
23303;BME280;11820;48.738;9.092;2023-02-02T08:15:43;96983.25;;;5.96;nan
23303;BME280;11820;48.738;9.092;2023-02-02T08:18:08;96981.63;;;5.95;nan
23303;BME280;11820;48.738;9.092;2023-02-02T08:20:34;96980.31;;;5.91;nan
23303;BME280;11820;48.738;9.092;2023-02-02T08:22:59;96990.63;;;5.99;nan
23303;BME280;11820;48.738;9.092;2023-02-02T08:25:25;96998.56;;;6.06;nan
23303;BME280;11820;48.738;9.092;2023-02-02T08:27:54;97009.84;;;6.13;nan
23303;BME280;11820;48.738;9.092;2023-02-02T08:30:22;97004.47;;;6.24;nan
23303;BME280;11820;48.738;9.092;2023-02-02T08:32:47;97022.31;;;6.08;nan
23303;BME280;11820;48.738;9.092;2023-02-02T08:35:13;97037.25;;;6.12;nan
23303;BME280;11820;48.738;9.092;2023-02-02T08:37:38;97035.44;;;6.05;nan
23303;BME280;11820;48.738;9.092;2023-02-02T08:40:04;97039.63;;;6.06;nan
23303;BME280;11820;48.738;9.092;2023-02-02T08:42:29;97049.97;;;6.14;nan
23303;BME280;11820;48.738;9.092;2023-02-02T08:44:54;97046.50;;;6.23;nan
23303;BME280;11820;48.738;9.092;2023-02-02T08:47:20;97045.34;;;6.17;nan
23303;BME280;11820;48.738;9.092;2023-02-02T08:49:45;97050.31;;;6.19;nan
23303;BME280;11820;48.738;9.092;2023-02-02T08:52:11;97054.22;;;6.23;nan
23303;BME280;11820;48.738;9.092;2023-02-02T08:54:36;97055.81;;;6.24;nan
23303;BME280;11820;48.738;9.092;2023-02-02T08:57:01;97055.56;;;6.27;nan
23303;BME280;11820;48.738;9.092;2023-02-02T08:59:26;97067.03;;;6.23;nan
23303;BME280;11820;48.738;9.092;2023-02-02T09:01:52;97073.13;;;6.22;nan
23303;BME280;11820;48.738;9.092;2023-02-02T09:04:17;97085.19;;;6.21;nan
23303;BME280;11820;48.738;9.092;2023-02-02T09:06:43;97089.06;;;6.25;nan
23303;BME280;11820;48.738;9.092;2023-02-02T09:09:12;97083.50;;;6.30;nan
23303;BME280;11820;48.738;9.092;2023-02-02T09:11:38;97078.56;;;6.19;nan
23303;BME280;11820;48.738;9.092;2023-02-02T09:14:04;97080.41;;;6.26;nan
23303;BME280;11820;48.738;9.092;2023-02-02T09:16:31;97092.94;;;6.12;nan
23303;BME280;11820;48.738;9.092;2023-02-02T09:18:57;97095.59;;;6.20;nan
23303;BME280;11820;48.738;9.092;2023-02-02T09:21:23;97081.59;;;6.14;nan
23303;BME280;11820;48.738;9.092;2023-02-02T09:23:49;97076.34;;;6.24;nan
23303;BME280;11820;48.738;9.092;2023-02-02T09:26:20;97085.66;;;6.25;nan
23303;BME280;11820;48.738;9.092;2023-02-02T09:28:49;97096.91;;;6.24;nan
23303;BME280;11820;48.738;9.092;2023-02-02T09:31:14;97093.66;;;6.22;nan
23303;BME280;11820;48.738;9.092;2023-02-02T09:33:40;97090.16;;;6.23;nan
23303;BME280;11820;48.738;9.092;2023-02-02T09:36:12;97097.72;;;6.24;nan
23303;BME280;11820;48.738;9.092;2023-02-02T09:38:38;97105.28;;;6.26;nan
23303;BME280;11820;48.738;9.092;2023-02-02T09:49:16;97101.25;;;6.23;nan
23303;BME280;11820;48.738;9.092;2023-02-02T09:51:52;97106.91;;;6.27;nan
23303;BME280;11820;48.738;9.092;2023-02-02T09:54:26;97115.56;;;6.26;nan
23303;BME280;11820;48.738;9.092;2023-02-02T09:56:55;97102.56;;;6.27;nan
23303;BME280;11820;48.738;9.092;2023-02-02T09:59:27;97098.25;;;6.28;nan
23303;BME280;11820;48.738;9.092;2023-02-02T10:01:57;97111.75;;;6.30;nan
23303;BME280;11820;48.738;9.092;2023-02-02T10:04:35;97112.47;;;6.22;nan
23303;BME280;11820;48.738;9.092;2023-02-02T10:07:12;97113.78;;;6.26;nan
23303;BME280;11820;48.738;9.092;2023-02-02T10:09:46;97120.59;;;6.18;nan
23303;BME280;11820;48.738;9.092;2023-02-02T10:15:05;97107.47;;;6.21;nan
23303;BME280;11820;48.738;9.092;2023-02-02T10:17:57;97112.59;;;6.21;nan
23303;BME280;11820;48.738;9.092;2023-02-02T10:23:32;97103.94;;;6.22;nan
23303;BME280;11820;48.738;9.092;2023-02-02T10:34:16;97109.25;;;6.20;nan
23303;BME280;11820;48.738;9.092;2023-02-02T10:39:26;97119.22;;;6.40;nan
23303;BME280;11820;48.738;9.092;2023-02-02T10:42:33;97119.53;;;6.38;nan
23303;BME280;11820;48.738;9.092;2023-02-02T10:47:33;97128.31;;;6.18;nan
23303;BME280;11820;48.738;9.092;2023-02-02T10:52:36;97136.66;;;6.20;nan
23303;BME280;11820;48.738;9.092;2023-02-02T10:57:51;97146.84;;;6.12;nan
23303;BME280;11820;48.738;9.092;2023-02-02T11:00:24;97134.91;;;6.03;nan
23303;BME280;11820;48.738;9.092;2023-02-02T11:02:54;97135.03;;;6.19;nan
23303;BME280;11820;48.738;9.092;2023-02-02T11:05:22;97138.50;;;6.10;nan
23303;BME280;11820;48.738;9.092;2023-02-02T11:08:21;97128.97;;;6.20;nan
23303;BME280;11820;48.738;9.092;2023-02-02T11:10:52;97129.91;;;6.19;nan
23303;BME280;11820;48.738;9.092;2023-02-02T11:13:32;97131.47;;;6.29;nan
23303;BME280;11820;48.738;9.092;2023-02-02T11:16:17;97127.94;;;6.30;nan
23303;BME280;11820;48.738;9.092;2023-02-02T11:18:44;97131.69;;;6.36;nan
23303;BME280;11820;48.738;9.092;2023-02-02T11:21:23;97125.97;;;6.41;nan
23303;BME280;11820;48.738;9.092;2023-02-02T11:26:26;97122.38;;;6.35;nan
23303;BME280;11820;48.738;9.092;2023-02-02T11:28:54;97137.44;;;6.30;nan
23303;BME280;11820;48.738;9.092;2023-02-02T11:36:57;97118.56;;;6.38;nan
23303;BME280;11820;48.738;9.092;2023-02-02T11:39:22;97120.41;;;6.46;nan
23303;BME280;11820;48.738;9.092;2023-02-02T11:41:48;97113.50;;;6.46;nan
23303;BME280;11820;48.738;9.092;2023-02-02T11:44:24;97119.22;;;6.40;nan
23303;BME280;11820;48.738;9.092;2023-02-02T11:46:51;97117.91;;;6.54;nan
23303;BME280;11820;48.738;9.092;2023-02-02T11:49:19;97120.53;;;6.44;nan
23303;BME280;11820;48.738;9.092;2023-02-02T11:51:57;97121.34;;;6.45;nan
23303;BME280;11820;48.738;9.092;2023-02-02T11:54:29;97114.91;;;6.41;nan
23303;BME280;11820;48.738;9.092;2023-02-02T11:56:59;97124.22;;;6.42;nan
23303;BME280;11820;48.738;9.092;2023-02-02T11:59:39;97121.34;;;6.45;nan
23303;BME280;11820;48.738;9.092;2023-02-02T12:04:36;97124.72;;;6.45;nan
23303;BME280;11820;48.738;9.092;2023-02-02T12:07:21;97116.28;;;6.36;nan
23303;BME280;11820;48.738;9.092;2023-02-02T12:09:49;97110.13;;;6.46;nan
23303;BME280;11820;48.738;9.092;2023-02-02T12:20:28;97104.63;;;6.41;nan
23303;BME280;11820;48.738;9.092;2023-02-02T12:23:50;97124.28;;;6.33;nan
23303;BME280;11820;48.738;9.092;2023-02-02T12:26:21;97120.69;;;6.43;nan
23303;BME280;11820;48.738;9.092;2023-02-02T12:29:12;97115.47;;;6.35;nan
23303;BME280;11820;48.738;9.092;2023-02-02T12:32:10;97121.72;;;6.33;nan
23303;BME280;11820;48.738;9.092;2023-02-02T12:34:57;97115.19;;;6.38;nan
23303;BME280;11820;48.738;9.092;2023-02-02T12:37:32;97123.84;;;6.37;nan
23303;BME280;11820;48.738;9.092;2023-02-02T12:43:17;97115.56;;;6.26;nan
23303;BME280;11820;48.738;9.092;2023-02-02T12:45:48;97114.81;;;6.16;nan
23303;BME280;11820;48.738;9.092;2023-02-02T12:48:33;97106.06;;;6.09;nan
23303;BME280;11820;48.738;9.092;2023-02-02T12:51:16;97113.06;;;6.16;nan
23303;BME280;11820;48.738;9.092;2023-02-02T12:54:12;97124.28;;;6.15;nan
23303;BME280;11820;48.738;9.092;2023-02-02T12:57:18;97126.78;;;5.98;nan
23303;BME280;11820;48.738;9.092;2023-02-02T13:00:39;97128.50;;;6.07;nan
23303;BME280;11820;48.738;9.092;2023-02-02T13:06:04;97116.25;;;6.01;nan
23303;BME280;11820;48.738;9.092;2023-02-02T13:08:42;97129.09;;;6.01;nan
23303;BME280;11820;48.738;9.092;2023-02-02T13:11:15;97113.59;;;5.93;nan
23303;BME280;11820;48.738;9.092;2023-02-02T13:16:35;97138.41;;;6.02;nan
23303;BME280;11820;48.738;9.092;2023-02-02T13:19:07;97123.56;;;5.96;nan
23303;BME280;11820;48.738;9.092;2023-02-02T13:21:37;97127.94;;;5.86;nan
23303;BME280;11820;48.738;9.092;2023-02-02T13:24:04;97126.72;;;5.90;nan
23303;BME280;11820;48.738;9.092;2023-02-02T13:26:37;97124.44;;;5.77;nan
23303;BME280;11820;48.738;9.092;2023-02-02T13:29:10;97129.09;;;6.01;nan
23303;BME280;11820;48.738;9.092;2023-02-02T13:31:56;97121.94;;;5.95;nan
23303;BME280;11820;48.738;9.092;2023-02-02T13:34:48;97127.31;;;6.01;nan
23303;BME280;11820;48.738;9.092;2023-02-02T13:37:29;97130.59;;;5.94;nan
23303;BME280;11820;48.738;9.092;2023-02-02T13:40:16;97132.56;;;5.82;nan
23303;BME280;11820;48.738;9.092;2023-02-02T13:42:48;97132.84;;;5.79;nan
23303;BME280;11820;48.738;9.092;2023-02-02T13:45:39;97118.66;;;6.02;nan
23303;BME280;11820;48.738;9.092;2023-02-02T13:48:16;97118.53;;;6.04;nan
23303;BME280;11820;48.738;9.092;2023-02-02T13:56:12;97152.84;;;6.03;nan
23303;BME280;11820;48.738;9.092;2023-02-02T14:01:21;97168.47;;;6.09;nan
23303;BME280;11820;48.738;9.092;2023-02-02T14:03:53;97176.75;;;6.03;nan
23303;BME280;11820;48.738;9.092;2023-02-02T14:06:21;97166.66;;;6.02;nan
23303;BME280;11820;48.738;9.092;2023-02-02T14:11:18;97161.59;;;6.10;nan
23303;BME280;11820;48.738;9.092;2023-02-02T14:13:46;97150.38;;;6.11;nan
23303;BME280;11820;48.738;9.092;2023-02-02T14:18:58;97153.47;;;6.14;nan
23303;BME280;11820;48.738;9.092;2023-02-02T14:24:39;97164.63;;;6.23;nan
23303;BME280;11820;48.738;9.092;2023-02-02T14:38:04;97163.41;;;6.27;nan
23303;BME280;11820;48.738;9.092;2023-02-02T14:43:32;97190.75;;;6.18;nan
23303;BME280;11820;48.738;9.092;2023-02-02T14:48:43;97172.41;;;6.31;nan
23303;BME280;11820;48.738;9.092;2023-02-02T14:51:22;97211.22;;;6.28;nan
23303;BME280;11820;48.738;9.092;2023-02-02T14:53:54;97190.41;;;6.31;nan
23303;BME280;11820;48.738;9.092;2023-02-02T14:56:36;97184.00;;;6.35;nan
23303;BME280;11820;48.738;9.092;2023-02-02T14:59:03;97191.09;;;6.23;nan
23303;BME280;11820;48.738;9.092;2023-02-02T15:01:36;97201.91;;;6.27;nan
23303;BME280;11820;48.738;9.092;2023-02-02T15:06:48;97200.38;;;6.34;nan
23303;BME280;11820;48.738;9.092;2023-02-02T15:14:48;97199.72;;;6.32;nan
23303;BME280;11820;48.738;9.092;2023-02-02T15:27:57;97217.88;;;6.21;nan
23303;BME280;11820;48.738;9.092;2023-02-02T15:30:27;97209.31;;;6.30;nan
23303;BME280;11820;48.738;9.092;2023-02-02T15:32:54;97208.19;;;6.15;nan
23303;BME280;11820;48.738;9.092;2023-02-02T15:35:23;97220.44;;;6.21;nan
23303;BME280;11820;48.738;9.092;2023-02-02T15:37:57;97220.44;;;6.21;nan
23303;BME280;11820;48.738;9.092;2023-02-02T15:40:25;97222.50;;;6.17;nan
23303;BME280;11820;48.738;9.092;2023-02-02T15:43:01;97227.75;;;6.16;nan
23303;BME280;11820;48.738;9.092;2023-02-02T15:45:28;97231.00;;;6.18;nan
23303;BME280;11820;48.738;9.092;2023-02-02T15:47:56;97230.34;;;6.16;nan
23303;BME280;11820;48.738;9.092;2023-02-02T15:50:21;97232.53;;;6.11;nan
23303;BME280;11820;48.738;9.092;2023-02-02T15:52:49;97228.88;;;6.13;nan
23303;BME280;11820;48.738;9.092;2023-02-02T15:55:33;97241.25;;;6.18;nan
23303;BME280;11820;48.738;9.092;2023-02-02T15:57:59;97239.94;;;6.14;nan
23303;BME280;11820;48.738;9.092;2023-02-02T16:00:33;97244.28;;;6.13;nan
23303;BME280;11820;48.738;9.092;2023-02-02T16:03:08;97255.88;;;6.17;nan